Time;durP1;ratioP1;P1;durP2;ratioP2;P2;SDS_P1;SDS_P2;PMS_P1;PMS_P2;Temp;Humidity;BMP_temperature;BMP_pressure;BME280_temperature;BME280_humidity;BME280_pressure;Samples;Min_cycle;Max_cycle;Signal;HPM_P1;HPM_P2
2023/12/06 00:00:33;;;;;;;0.90;0.90;;;5.10;99.90;;;;;;5023026;23;20067;-78
2023/12/06 00:03:01;;;;;;;0.10;0.10;;;;;;;;;;4999443;28;20007;-79
2023/12/06 00:05:27;;;;;;;0.10;0.10;;;5.00;99.90;;;;;;4983027;28;20031;-79
2023/12/06 00:07:54;;;;;;;0.10;0.10;;;5.00;99.90;;;;;;4997322;28;20067;-79
2023/12/06 00:10:29;;;;;;;0.15;0.15;;;4.90;99.90;;;;;;4994027;28;20022;-78
2023/12/06 00:13:11;;;;;;;0.10;0.10;;;5.00;99.90;;;;;;5015972;23;20038;-79
2023/12/06 00:15:43;;;;;;;0.10;0.10;;;4.90;99.90;;;;;;4990816;28;20035;-79
2023/12/06 00:18:13;;;;;;;0.00;0.00;;;4.80;99.90;;;;;;4989538;28;20019;-78
2023/12/06 00:21:30;;;;;;;0.10;0.10;;;4.80;99.90;;;;;;4992776;28;20029;-79
2023/12/06 00:23:55;;;;;;;0.10;0.10;;;5.60;99.90;;;;;;4978266;23;20050;-78
2023/12/06 00:26:21;;;;;;;0.10;0.10;;;4.80;99.90;;;;;;4993590;28;20046;-78
2023/12/06 00:28:50;;;;;;;0.00;0.00;;;4.30;99.90;;;;;;4990874;28;20027;-77
2023/12/06 00:31:16;;;;;;;0.10;0.10;;;;;;;;;;4988655;28;20027;-78
2023/12/06 00:33:45;;;;;;;0.00;0.00;;;4.90;99.90;;;;;;4992051;28;20023;-79
2023/12/06 00:36:13;;;;;;;0.00;0.00;;;5.00;99.90;;;;;;4994946;28;20011;-78
2023/12/06 00:38:42;;;;;;;0.10;0.10;;;5.50;99.90;;;;;;4994463;28;20070;-79
2023/12/06 00:41:12;;;;;;;0.03;0.03;;;5.00;99.90;;;;;;4993198;28;20027;-78
2023/12/06 00:43:38;;;;;;;0.10;0.10;;;5.00;99.90;;;;;;5038619;23;20061;-78
2023/12/06 00:46:11;;;;;;;0.10;0.10;;;5.00;99.90;;;;;;4993263;28;20038;-79
2023/12/06 00:48:40;;;;;;;0.10;0.10;;;;;;;;;;4993095;23;20055;-78
2023/12/06 00:53:41;;;;;;;0.00;0.00;;;4.90;99.90;;;;;;4167356;26;20062;-79
2023/12/06 00:56:52;;;;;;;0.10;0.10;;;5.00;99.90;;;;;;4994634;28;20026;-78
2023/12/06 00:59:26;;;;;;;0.10;0.10;;;5.00;99.90;;;;;;4993566;28;20088;-79
2023/12/06 01:01:52;;;;;;;0.00;0.00;;;5.00;99.90;;;;;;5001750;23;20066;-78
2023/12/06 01:04:18;;;;;;;0.10;0.10;;;;;;;;;;4992604;28;20039;-78
2023/12/06 01:06:54;;;;;;;0.10;0.10;;;5.10;99.90;;;;;;4996890;28;20054;-78
2023/12/06 01:10:08;;;;;;;0.03;0.03;;;5.20;99.90;;;;;;4996131;28;20058;-79
2023/12/06 01:13:04;;;;;;;0.10;0.10;;;6.10;99.90;;;;;;4975924;28;20047;-80
2023/12/06 01:15:29;;;;;;;0.10;0.10;;;5.30;99.90;;;;;;4973047;28;20731;-79
2023/12/06 01:17:55;;;;;;;0.10;0.10;;;;;;;;;;4973915;28;20023;-79
2023/12/06 01:20:28;;;;;;;0.10;0.10;;;5.60;99.90;;;;;;5054234;23;20066;-79
2023/12/06 01:23:21;;;;;;;0.10;0.10;;;5.50;99.90;;;;;;4996353;28;20034;-78
2023/12/06 01:33:37;;;;;;;0.00;0.00;;;5.80;99.90;;;;;;4661685;26;20035;-78
2023/12/06 01:36:15;;;;;;;0.10;0.10;;;5.90;99.90;;;;;;4995352;28;20038;-78
2023/12/06 01:41:50;;;;;;;0.00;0.00;;;6.00;99.90;;;;;;4850367;26;20035;-78
2023/12/06 01:44:35;;;;;;;;;;;6.00;99.90;;;;;;4991200;28;20035;-79
2023/12/06 01:50:01;;;;;;;0.05;0.05;;;5.90;99.90;;;;;;3244016;26;20099;-78
2023/12/06 01:52:32;;;;;;;0.10;0.10;;;5.90;99.90;;;;;;4995196;28;20007;-78
2023/12/06 01:55:05;;;;;;;0.00;0.00;;;6.00;99.90;;;;;;4993357;28;20043;-78
2023/12/06 01:57:36;;;;;;;0.00;0.00;;;6.00;99.90;;;;;;4975996;28;20035;-78
2023/12/06 02:05:19;;;;;;;0.10;0.10;;;;;;;;;;1398965;26;20056;-79
2023/12/06 02:07:58;;;;;;;0.10;0.10;;;6.10;99.90;;;;;;4993252;28;20031;-78
2023/12/06 02:10:25;;;;;;;0.10;0.10;;;6.00;99.90;;;;;;4977990;28;20030;-78
2023/12/06 02:12:51;;;;;;;0.10;0.10;;;;;;;;;;4993839;28;20023;-80
2023/12/06 02:15:36;;;;;;;0.20;0.20;;;6.10;99.90;;;;;;4993035;28;20058;-78
2023/12/06 02:18:07;;;;;;;0.10;0.10;;;6.10;99.90;;;;;;4932004;29;20044;-78
2023/12/06 02:23:39;;;;;;;0.10;0.10;;;6.10;99.90;;;;;;1202363;26;20098;-78
2023/12/06 02:26:25;;;;;;;0.03;0.03;;;6.20;99.90;;;;;;4992352;28;20015;-78
2023/12/06 02:28:55;;;;;;;0.10;0.10;;;6.10;99.90;;;;;;4992440;28;20031;-79
2023/12/06 02:31:58;;;;;;;0.10;0.10;;;6.10;99.90;;;;;;4927898;29;20043;-78
2023/12/06 02:34:26;;;;;;;0.10;0.10;;;6.10;99.90;;;;;;5090896;23;20047;-78
2023/12/06 02:39:34;;;;;;;0.10;0.10;;;6.10;99.90;;;;;;4730341;26;20070;-78
2023/12/06 02:42:20;;;;;;;0.10;0.10;;;6.10;99.90;;;;;;4995217;28;20022;-78
2023/12/06 02:45:09;;;;;;;0.10;0.10;;;6.10;99.90;;;;;;4986646;28;20043;-79
2023/12/06 02:47:58;;;;;;;0.10;0.10;;;6.10;99.90;;;;;;4993082;28;20039;-79
2023/12/06 02:50:25;;;;;;;0.00;0.00;;;;;;;;;;4990252;28;20075;-78
2023/12/06 02:52:51;;;;;;;0.10;0.10;;;6.20;99.90;;;;;;5067839;23;20053;-78
2023/12/06 02:55:24;;;;;;;0.10;0.10;;;6.20;99.90;;;;;;4992261;28;20027;-78
2023/12/06 02:57:58;;;;;;;0.10;0.10;;;6.20;99.90;;;;;;4994556;28;20181;-78
2023/12/06 03:03:00;;;;;;;0.10;0.10;;;;;;;;;;933274;26;20333;-78
2023/12/06 03:05:30;;;;;;;0.10;0.10;;;6.30;99.90;;;;;;4993808;28;20046;-78
2023/12/06 03:07:56;;;;;;;0.10;0.10;;;;;;;;;;4994675;28;20045;-78
2023/12/06 03:10:31;;;;;;;0.10;0.10;;;6.30;99.90;;;;;;4997347;28;20015;-79
2023/12/06 03:18:34;;;;;;;0.03;0.03;;;6.40;99.90;;;;;;4981168;26;20054;-78
2023/12/06 03:21:23;;;;;;;0.10;0.10;;;;;;;;;;4994827;28;20055;-79
2023/12/06 03:23:54;;;;;;;0.00;0.00;;;6.50;99.90;;;;;;4997623;28;20046;-80
2023/12/06 03:26:31;;;;;;;0.10;0.10;;;6.60;99.90;;;;;;4998358;28;20011;-79
2023/12/06 03:29:30;;;;;;;0.10;0.10;;;4.10;99.90;;;;;;4995234;28;20022;-79
2023/12/06 03:31:59;;;;;;;0.10;0.10;;;6.50;99.90;;;;;;4993954;28;20054;-79
2023/12/06 03:34:49;;;;;;;0.10;0.10;;;6.60;99.90;;;;;;4995988;28;20028;-79
2023/12/06 03:37:15;;;;;;;0.10;0.10;;;6.50;99.90;;;;;;4978731;28;20066;-79
2023/12/06 03:39:59;;;;;;;0.10;0.10;;;6.50;99.90;;;;;;4997016;28;20113;-79
2023/12/06 03:42:28;;;;;;;0.00;0.00;;;6.60;99.90;;;;;;5017080;23;20058;-79
2023/12/06 03:44:57;;;;;;;0.10;0.10;;;6.50;99.90;;;;;;4993990;28;20033;-79
2023/12/06 03:50:24;;;;;;;0.10;0.10;;;6.40;99.90;;;;;;4232678;26;20029;-79
2023/12/06 03:52:52;;;;;;;0.10;0.10;;;6.40;99.90;;;;;;4998196;28;20017;-79
2023/12/06 03:55:18;;;;;;;0.10;0.10;;;;;;;;;;4978748;28;20341;-79
2023/12/06 03:58:11;;;;;;;0.10;0.10;;;6.40;99.90;;;;;;4978358;28;20042;-79
2023/12/06 04:00:47;;;;;;;0.10;0.10;;;3.40;99.90;;;;;;4974952;28;20043;-79
2023/12/06 04:03:14;;;;;;;0.10;0.10;;;6.40;99.90;;;;;;4961353;28;20130;-79
2023/12/06 04:05:42;;;;;;;0.10;0.10;;;6.40;99.90;;;;;;4941754;29;20036;-79
2023/12/06 04:08:35;;;;;;;0.10;0.10;;;6.30;99.90;;;;;;4958794;28;20031;-79
2023/12/06 04:11:25;;;;;;;0.00;0.00;;;6.30;99.90;;;;;;4975118;28;20094;-83
2023/12/06 04:19:25;;;;;;;0.10;0.10;;;6.20;99.90;;;;;;5009793;23;20051;-80
2023/12/06 04:21:54;;;;;;;0.10;0.10;;;6.30;99.90;;;;;;4992910;28;20031;-79
2023/12/06 04:24:22;;;;;;;0.00;0.00;;;6.10;99.90;;;;;;4993078;28;20031;-79
2023/12/06 04:26:49;;;;;;;0.10;0.10;;;;;;;;;;4994619;28;20027;-79
2023/12/06 04:29:25;;;;;;;0.10;0.10;;;6.00;99.90;;;;;;4993394;28;20031;-79
2023/12/06 04:31:51;;;;;;;0.10;0.10;;;5.90;99.90;;;;;;4993664;28;20031;-79
2023/12/06 04:34:17;;;;;;;3.85;3.72;;;;;;;;;;4995219;28;20042;-78
2023/12/06 04:36:43;;;;;;;0.05;0.05;;;5.60;99.90;;;;;;4994218;28;20029;-79
2023/12/06 04:41:42;;;;;;;4.68;4.47;;;5.30;99.90;;;;;;4992205;28;20039;-80
2023/12/06 04:44:25;;;;;;;;;;;;;;;;;;;;;
2023/12/06 04:47:00;;;;;;;0.10;0.10;;;5.10;99.90;;;;;;4912235;28;20062;-79
2023/12/06 04:49:26;;;;;;;0.10;0.10;;;;;;;;;;4974873;28;20019;-79
2023/12/06 04:51:54;;;;;;;0.10;0.10;;;;;;;;;;4983890;23;20070;-79
2023/12/06 04:54:20;;;;;;;0.10;0.10;;;4.90;99.90;;;;;;4973187;29;20036;-80
2023/12/06 04:59:17;;;;;;;0.10;0.10;;;4.90;99.90;;;;;;5089580;23;20038;-79
2023/12/06 05:02:06;;;;;;;0.38;0.38;;;4.90;99.90;;;;;;4996620;28;20022;-80
2023/12/06 05:04:53;;;;;;;0.10;0.10;;;4.90;99.90;;;;;;4988441;28;20034;-79
2023/12/06 05:08:00;;;;;;;0.03;0.03;;;1.90;99.90;;;;;;4997801;23;20070;-78
2023/12/06 05:10:44;;;;;;;0.10;0.10;;;4.90;99.90;;;;;;4952935;29;20048;-79
2023/12/06 05:13:28;;;;;;;0.10;0.10;;;;;;;;;;4860859;29;20053;-78
2023/12/06 05:15:54;;;;;;;9.80;9.43;;;;;;;;;;4859780;29;20133;-79
2023/12/06 05:18:42;;;;;;;2.28;2.17;;;4.80;99.90;;;;;;4816116;29;20026;-79
2023/12/06 05:21:17;;;;;;;0.10;0.10;;;5.00;99.90;;;;;;4847304;29;20026;-79
2023/12/06 05:23:43;;;;;;;0.10;0.10;;;4.90;99.90;;;;;;4827538;29;20042;-80
2023/12/06 05:26:09;;;;;;;0.10;0.10;;;;;;;;;;4861091;29;20061;-78
2023/12/06 05:28:35;;;;;;;0.10;0.10;;;4.70;99.90;;;;;;4860364;29;20045;-80
2023/12/06 05:31:01;;;;;;;13.90;13.35;;;;;;;;;;4859326;29;20026;-78
2023/12/06 05:33:34;;;;;;;0.00;0.00;;;4.70;99.90;;;;;;4861425;29;20065;-79
2023/12/06 05:36:00;;;;;;;0.75;0.75;;;4.50;99.90;;;;;;4860934;29;20076;-79
2023/12/06 05:38:26;;;;;;;0.10;0.10;;;4.60;99.90;;;;;;4860594;29;20041;-79
2023/12/06 05:44:08;;;;;;;0.10;0.10;;;4.50;99.90;;;;;;4822045;29;20046;-79
2023/12/06 05:46:44;;;;;;;2.13;2.03;;;4.50;99.90;;;;;;4826577;29;20023;-79
2023/12/06 05:49:22;;;;;;;9.65;8.45;;;4.50;99.90;;;;;;5037644;23;20078;-79
2023/12/06 05:51:51;;;;;;;0.30;0.30;;;4.60;99.90;;;;;;4973856;28;20111;-78
2023/12/06 05:54:17;;;;;;;0.10;0.10;;;;;;;;;;4974387;28;20024;-78
2023/12/06 05:56:51;;;;;;;0.52;0.52;;;4.70;99.90;;;;;;4973618;29;20023;-78
2023/12/06 05:59:18;;;;;;;0.20;0.20;;;;;;;;;;4985822;23;20066;-79
2023/12/06 06:02:18;;;;;;;0.10;0.10;;;4.70;99.90;;;;;;4973999;28;20039;-78
2023/12/06 06:04:44;;;;;;;27.95;23.85;;;;;;;;;;4969799;28;20095;-78
2023/12/06 06:07:13;;;;;;;3.03;2.03;;;4.80;99.90;;;;;;4977292;28;20022;-78
2023/12/06 06:09:40;;;;;;;0.10;0.10;;;;;;;;;;4973858;28;20047;-79
2023/12/06 06:12:22;;;;;;;0.10;0.10;;;4.80;99.90;;;;;;4988805;28;20027;-79
2023/12/06 06:14:48;;;;;;;0.10;0.10;;;4.90;99.90;;;;;;4988417;28;20034;-78
2023/12/06 06:17:18;;;;;;;0.80;0.80;;;4.90;99.90;;;;;;4985816;28;20053;-78
2023/12/06 06:19:45;;;;;;;0.10;0.10;;;;;;;;;;4986050;28;20003;-79
2023/12/06 06:22:33;;;;;;;21.27;19.92;;;5.00;99.90;;;;;;4983074;28;20030;-79
2023/12/06 06:25:05;;;;;;;0.10;0.10;;;5.00;99.90;;;;;;4995961;23;20077;-78
2023/12/06 06:27:34;;;;;;;0.00;0.00;;;3.40;99.90;;;;;;4969564;28;20044;-78
2023/12/06 06:29:59;;;;;;;0.20;0.20;;;5.10;99.90;;;;;;4971485;28;20024;-78
2023/12/06 06:32:25;;;;;;;0.15;0.15;;;5.00;99.90;;;;;;5047446;23;20052;-79
2023/12/06 06:34:59;;;;;;;1.95;1.85;;;4.90;99.90;;;;;;4990723;28;20042;-78
2023/12/06 06:40:15;;;;;;;0.10;0.10;;;;;;;;;;4992880;23;20058;-78
2023/12/06 06:42:51;;;;;;;0.20;0.20;;;5.00;99.90;;;;;;4967765;28;20078;-78
2023/12/06 06:45:17;;;;;;;0.00;0.00;;;5.10;99.90;;;;;;4985097;28;20521;-80
2023/12/06 06:47:43;;;;;;;0.10;0.10;;;5.20;99.90;;;;;;4982739;28;20023;-80
2023/12/06 06:50:31;;;;;;;1.33;1.33;;;2.30;99.90;;;;;;4971449;28;20019;-77
2023/12/06 06:52:59;;;;;;;3.33;3.17;;;;;;;;;;4970537;28;20119;-77
2023/12/06 06:55:29;;;;;;;0.10;0.10;;;4.90;99.90;;;;;;4974192;28;20047;-78
2023/12/06 06:57:56;;;;;;;0.10;0.10;;;4.80;99.90;;;;;;4971883;28;20020;-78
2023/12/06 07:00:25;;;;;;;0.00;0.00;;;4.80;99.90;;;;;;4962437;29;20535;-77
2023/12/06 07:02:51;;;;;;;0.20;0.20;;;4.80;99.90;;;;;;4953439;29;20035;-78
2023/12/06 07:05:32;;;;;;;0.10;0.10;;;4.80;99.90;;;;;;4953625;29;20747;-77
2023/12/06 07:08:00;;;;;;;0.00;0.00;;;4.70;99.90;;;;;;4955463;29;20035;-78
2023/12/06 07:10:27;;;;;;;0.10;0.10;;;;;;;;;;4954599;29;20083;-77
2023/12/06 07:12:58;;;;;;;0.40;0.40;;;4.60;99.90;;;;;;4955331;29;20032;-78
2023/12/06 07:15:41;;;;;;;3.50;3.30;;;4.60;99.90;;;;;;4958499;29;20062;-78
2023/12/06 07:18:09;;;;;;;0.10;0.10;;;4.60;99.90;;;;;;4959164;29;20026;-77
2023/12/06 07:20:35;;;;;;;0.10;0.10;;;;;;;;;;4953774;29;20091;-77
2023/12/06 07:23:03;;;;;;;0.55;0.55;;;4.60;99.90;;;;;;4959679;28;20055;-78
2023/12/06 07:25:35;;;;;;;52.10;27.58;;;4.60;99.90;;;;;;4935955;29;20583;-77
2023/12/06 07:28:02;;;;;;;0.15;0.15;;;4.10;99.90;;;;;;4966044;28;20043;-80
2023/12/06 07:30:34;;;;;;;7.50;7.13;;;4.50;99.90;;;;;;4974355;28;20694;-77
2023/12/06 07:33:00;;;;;;;0.10;0.10;;;4.40;99.90;;;;;;4976171;28;20404;-79
2023/12/06 07:35:25;;;;;;;0.10;0.10;;;4.20;99.90;;;;;;4977092;28;20058;-76
2023/12/06 07:37:51;;;;;;;0.10;0.10;;;4.20;99.90;;;;;;4956363;28;20689;-77
2023/12/06 07:40:17;;;;;;;0.10;0.10;;;4.00;99.90;;;;;;4972539;28;20042;-76
2023/12/06 07:42:43;;;;;;;3.40;3.30;;;3.90;99.90;;;;;;4968934;28;20015;-76
2023/12/06 07:45:11;;;;;;;0.10;0.10;;;3.90;99.90;;;;;;4970459;28;20023;-77
2023/12/06 07:47:40;;;;;;;0.10;0.10;;;3.70;99.90;;;;;;4973584;28;20030;-78
2023/12/06 07:50:07;;;;;;;3.08;2.97;;;3.70;99.90;;;;;;4970904;28;20021;-78
2023/12/06 07:52:36;;;;;;;0.13;0.13;;;3.60;99.90;;;;;;4957790;28;20674;-77
2023/12/06 07:55:08;;;;;;;13.55;12.90;;;3.60;99.90;;;;;;4977710;28;20126;-77
2023/12/06 07:57:38;;;;;;;0.10;0.10;;;3.60;99.90;;;;;;4974294;28;20022;-78
2023/12/06 08:00:07;;;;;;;6.75;2.65;;;3.40;99.90;;;;;;4958195;28;20030;-76
2023/12/06 08:02:39;;;;;;;3.75;3.63;;;3.30;99.90;;;;;;4975806;28;20058;-79
2023/12/06 08:05:11;;;;;;;0.10;0.10;;;3.30;99.90;;;;;;4976637;28;20666;-76
2023/12/06 08:07:41;;;;;;;6.07;5.63;;;3.40;99.90;;;;;;4967398;28;20130;-77
2023/12/06 08:10:10;;;;;;;0.32;0.32;;;3.50;99.90;;;;;;4978994;28;20666;-76
2023/12/06 08:12:39;;;;;;;0.10;0.10;;;3.50;99.90;;;;;;4978840;28;20019;-77
2023/12/06 08:15:06;;;;;;;0.10;0.10;;;3.60;99.90;;;;;;4957628;28;20597;-77
2023/12/06 08:17:31;;;;;;;0.55;0.55;;;3.60;99.90;;;;;;4978349;28;20757;-76
2023/12/06 08:19:57;;;;;;;0.10;0.10;;;3.60;99.90;;;;;;4958449;28;20062;-77
2023/12/06 08:22:23;;;;;;;0.10;0.10;;;3.60;99.90;;;;;;4977738;28;20023;-78
2023/12/06 08:24:50;;;;;;;0.30;0.30;;;3.70;99.90;;;;;;4979053;28;20030;-77
2023/12/06 08:27:33;;;;;;;8.85;8.40;;;3.70;99.90;;;;;;4955126;28;20027;-77
2023/12/06 08:30:00;;;;;;;0.10;0.10;;;3.70;99.90;;;;;;4980605;23;20055;-76
2023/12/06 08:32:26;;;;;;;0.00;0.00;;;3.70;99.90;;;;;;4935983;28;20090;-76
2023/12/06 08:34:53;;;;;;;0.63;0.63;;;3.70;99.90;;;;;;4968759;28;20038;-77
2023/12/06 08:37:19;;;;;;;0.10;0.10;;;3.80;99.90;;;;;;4967467;28;20158;-77
2023/12/06 08:39:45;;;;;;;0.10;0.10;;;3.80;99.90;;;;;;4974652;28;20135;-77
2023/12/06 08:42:14;;;;;;;0.10;0.10;;;3.90;99.90;;;;;;4983397;28;20031;-77
2023/12/06 08:45:10;;;;;;;0.15;0.15;;;3.90;99.90;;;;;;4986353;28;20018;-77
2023/12/06 08:47:36;;;;;;;0.10;0.10;;;3.90;99.90;;;;;;5006372;28;20018;-77
2023/12/06 08:50:04;;;;;;;0.10;0.10;;;3.90;99.90;;;;;;5006636;28;20057;-78
2023/12/06 08:52:36;;;;;;;0.10;0.10;;;3.90;99.90;;;;;;5008097;28;20015;-78
2023/12/06 08:55:03;;;;;;;0.30;0.30;;;4.00;99.90;;;;;;5004679;28;20381;-78
2023/12/06 08:57:39;;;;;;;13.45;12.80;;;4.20;99.90;;;;;;5002404;28;20027;-77
2023/12/06 09:00:07;;;;;;;0.90;0.90;;;4.20;99.90;;;;;;5001284;28;20026;-78
2023/12/06 09:02:37;;;;;;;0.10;0.10;;;4.30;99.90;;;;;;4994227;28;20035;-77
2023/12/06 09:05:07;;;;;;;0.10;0.10;;;4.30;99.90;;;;;;4992735;28;20029;-77
2023/12/06 09:07:33;;;;;;;0.10;0.10;;;4.30;99.90;;;;;;4994295;28;20046;-76
2023/12/06 09:09:58;;;;;;;0.08;0.08;;;4.30;99.90;;;;;;4993401;28;20026;-77
2023/12/06 09:12:25;;;;;;;0.30;0.30;;;4.30;99.90;;;;;;4995370;28;20027;-77
2023/12/06 09:14:51;;;;;;;0.20;0.20;;;4.20;99.90;;;;;;4993431;28;20057;-77
2023/12/06 09:17:21;;;;;;;0.10;0.10;;;4.20;99.90;;;;;;4990792;28;20022;-77
2023/12/06 09:19:48;;;;;;;0.10;0.10;;;4.10;99.90;;;;;;4987714;28;20030;-77
2023/12/06 09:22:15;;;;;;;0.15;0.15;;;;;;;;;;4986855;28;20026;-77
2023/12/06 09:24:43;;;;;;;0.40;0.40;;;4.10;99.90;;;;;;4999681;28;20621;-78
2023/12/06 09:27:15;;;;;;;0.10;0.10;;;4.20;99.90;;;;;;5000827;28;20026;-77
2023/12/06 09:29:45;;;;;;;0.20;0.20;;;4.20;99.90;;;;;;4970530;28;20050;-78
2023/12/06 09:32:11;;;;;;;0.10;0.10;;;4.20;99.90;;;;;;4980158;28;20015;-77
2023/12/06 09:34:37;;;;;;;0.00;0.00;;;4.20;99.90;;;;;;4968352;28;20027;-77
2023/12/06 09:37:07;;;;;;;0.10;0.10;;;4.20;99.90;;;;;;4970310;28;20728;-76
2023/12/06 09:39:34;;;;;;;2.17;2.03;;;4.20;99.90;;;;;;4969282;28;20118;-77
2023/12/06 09:42:04;;;;;;;7.22;6.93;;;4.30;99.90;;;;;;4969261;28;20053;-77
2023/12/06 09:44:31;;;;;;;0.10;0.10;;;4.30;99.90;;;;;;4968227;28;20046;-77
2023/12/06 09:47:00;;;;;;;0.10;0.10;;;4.40;99.90;;;;;;4971661;28;20039;-77
2023/12/06 09:49:26;;;;;;;0.00;0.00;;;4.40;99.90;;;;;;4967752;28;20030;-77
2023/12/06 09:52:03;;;;;;;0.10;0.10;;;4.40;99.90;;;;;;4977642;28;20018;-77
2023/12/06 09:54:29;;;;;;;0.10;0.10;;;4.40;99.90;;;;;;4974402;28;20027;-77
2023/12/06 09:56:55;;;;;;;0.30;0.30;;;4.50;99.90;;;;;;4970028;28;20026;-77
2023/12/06 09:59:21;;;;;;;12.50;11.85;;;4.00;99.90;;;;;;4969123;28;20109;-77
2023/12/06 10:01:50;;;;;;;0.10;0.10;;;4.30;99.90;;;;;;4969256;28;20027;-77
2023/12/06 10:04:20;;;;;;;0.73;0.73;;;4.40;99.90;;;;;;4971872;28;20031;-78
2023/12/06 10:06:49;;;;;;;0.10;0.10;;;4.30;99.90;;;;;;4974016;28;20110;-77
2023/12/06 10:09:16;;;;;;;0.10;0.10;;;4.20;99.90;;;;;;4973986;28;20094;-78
2023/12/06 10:11:42;;;;;;;0.25;0.25;;;;;;;;;;4973122;28;20022;-76
2023/12/06 10:14:21;;;;;;;0.10;0.10;;;4.20;99.90;;;;;;4973239;28;20053;-78
2023/12/06 10:16:56;;;;;;;0.10;0.10;;;4.20;99.90;;;;;;4975165;28;20080;-77
2023/12/06 10:19:23;;;;;;;0.10;0.10;;;4.20;99.90;;;;;;4976094;28;20026;-77
2023/12/06 10:21:50;;;;;;;0.10;0.10;;;4.10;99.90;;;;;;4976280;28;20033;-78
2023/12/06 10:24:19;;;;;;;0.10;0.10;;;4.10;99.90;;;;;;4978730;28;20041;-77
2023/12/06 10:26:47;;;;;;;0.20;0.20;;;4.10;99.90;;;;;;4975123;28;20027;-77
2023/12/06 10:29:21;;;;;;;0.00;0.00;;;4.10;99.90;;;;;;4962815;28;20062;-75
2023/12/06 10:31:48;;;;;;;1.35;1.33;;;4.20;99.90;;;;;;4969070;29;20046;-73
2023/12/06 10:34:15;;;;;;;0.10;0.10;;;4.20;99.90;;;;;;4973354;28;20011;-74
2023/12/06 10:36:42;;;;;;;0.20;0.20;;;4.30;99.90;;;;;;4987325;28;20018;-74
2023/12/06 10:39:14;;;;;;;5.28;4.97;;;4.30;99.90;;;;;;4970186;28;20033;-74
2023/12/06 10:41:48;;;;;;;0.10;0.10;;;4.30;99.90;;;;;;4965871;28;20014;-79
2023/12/06 10:44:15;;;;;;;;;;;4.30;99.90;;;;;;4968916;28;20082;-74
2023/12/06 10:46:43;;;;;;;0.10;0.10;;;4.40;99.90;;;;;;4958255;29;19906;-73
2023/12/06 10:49:10;;;;;;;0.20;0.20;;;4.50;99.90;;;;;;4959698;28;20684;-73
2023/12/06 10:51:37;;;;;;;0.20;0.20;;;4.50;99.90;;;;;;4977225;28;20057;-74
2023/12/06 10:54:05;;;;;;;0.08;0.08;;;4.50;99.90;;;;;;4974606;28;20033;-73
2023/12/06 10:56:34;;;;;;;14.15;13.35;;;4.40;99.90;;;;;;4975133;28;20022;-73
2023/12/06 10:59:03;;;;;;;0.10;0.10;;;4.30;99.90;;;;;;4975147;28;20023;-73
2023/12/06 11:01:32;;;;;;;4.38;1.95;;;4.20;99.90;;;;;;4962628;28;20026;-73
2023/12/06 11:03:59;;;;;;;0.35;0.35;;;4.20;99.90;;;;;;4985609;28;20027;-74
2023/12/06 11:06:43;;;;;;;0.10;0.10;;;4.10;99.90;;;;;;4984651;28;20750;-73
2023/12/06 11:09:36;;;;;;;7.82;7.47;;;3.80;99.90;;;;;;4983833;28;20019;-74
2023/12/06 11:12:28;;;;;;;0.10;0.10;;;4.50;99.90;;;;;;4923356;29;20016;-73
2023/12/06 11:15:19;;;;;;;0.10;0.10;;;4.30;99.90;;;;;;4923802;29;20036;-75
2023/12/06 11:17:45;;;;;;;5.47;5.28;;;4.20;99.90;;;;;;4915047;29;20031;-76
2023/12/06 11:20:13;;;;;;;2.08;1.45;;;4.10;99.90;;;;;;4933944;29;20084;-74
2023/12/06 11:22:54;;;;;;;23.08;22.00;;;4.10;99.90;;;;;;4923302;29;20039;-75
2023/12/06 11:25:21;;;;;;;0.10;0.10;;;4.20;99.90;;;;;;4915857;29;20020;-76
2023/12/06 11:27:49;;;;;;;0.10;0.10;;;4.20;99.90;;;;;;4916914;29;20024;-75
2023/12/06 11:30:18;;;;;;;0.10;0.10;;;4.30;99.90;;;;;;4889087;29;20053;-75
2023/12/06 11:32:57;;;;;;;0.10;0.10;;;4.30;99.90;;;;;;4899075;29;20021;-75
2023/12/06 11:35:24;;;;;;;0.10;0.10;;;4.30;99.90;;;;;;4897109;29;20135;-75
2023/12/06 11:37:52;;;;;;;0.10;0.10;;;4.30;99.90;;;;;;4899000;29;20031;-74
2023/12/06 11:40:18;;;;;;;0.10;0.10;;;4.20;99.90;;;;;;4881913;29;20087;-75
2023/12/06 11:43:00;;;;;;;0.08;0.08;;;4.30;99.90;;;;;;4894761;29;20045;-75
2023/12/06 11:45:32;;;;;;;0.00;0.00;;;4.40;99.90;;;;;;4913919;23;20048;-78
2023/12/06 11:48:05;;;;;;;13.15;12.45;;;4.60;99.90;;;;;;4966591;28;20023;-74
2023/12/06 11:50:46;;;;;;;0.00;0.00;;;4.30;99.90;;;;;;4964248;28;20015;-73
2023/12/06 11:53:12;;;;;;;0.10;0.10;;;4.50;99.90;;;;;;4984954;28;20026;-77
2023/12/06 11:55:42;;;;;;;0.00;0.00;;;4.60;99.90;;;;;;4963096;28;20015;-74
2023/12/06 11:58:32;;;;;;;0.10;0.10;;;4.50;99.90;;;;;;4979809;28;20023;-74
2023/12/06 12:01:01;;;;;;;0.10;0.10;;;4.70;99.90;;;;;;4991015;28;20027;-76
2023/12/06 12:03:31;;;;;;;0.10;0.10;;;4.70;99.90;;;;;;4971420;28;20046;-74
2023/12/06 12:05:58;;;;;;;0.00;0.00;;;4.70;99.90;;;;;;4988216;28;20023;-75
2023/12/06 12:08:24;;;;;;;0.45;0.45;;;4.80;99.90;;;;;;4983645;28;20094;-79
2023/12/06 12:11:12;;;;;;;31.67;30.13;;;4.90;99.90;;;;;;4987704;28;20034;-74
2023/12/06 12:13:41;;;;;;;5.55;5.35;;;4.90;99.90;;;;;;4986565;28;20051;-74
2023/12/06 12:16:16;;;;;;;2.08;2.05;;;4.90;99.90;;;;;;4985206;28;20027;-75
2023/12/06 12:18:43;;;;;;;0.55;0.55;;;4.80;99.90;;;;;;4974474;28;20043;-74
2023/12/06 12:21:20;;;;;;;0.10;0.10;;;4.80;99.90;;;;;;4986014;28;20041;-76
2023/12/06 12:23:47;;;;;;;0.10;0.10;;;4.80;99.90;;;;;;4985188;28;20031;-74
2023/12/06 12:26:16;;;;;;;0.10;0.10;;;4.80;99.90;;;;;;4988159;28;20038;-75
2023/12/06 12:28:42;;;;;;;0.05;0.05;;;4.80;99.90;;;;;;4989897;28;20026;-76
2023/12/06 12:31:15;;;;;;;0.10;0.10;;;4.80;99.90;;;;;;4973014;28;20090;-77
2023/12/06 12:33:41;;;;;;;0.10;0.10;;;4.80;99.90;;;;;;4952209;29;20026;-75
2023/12/06 12:36:12;;;;;;;0.10;0.10;;;4.70;99.90;;;;;;4931924;29;20059;-77
2023/12/06 12:38:39;;;;;;;35.83;31.25;;;4.80;99.90;;;;;;4965466;29;20016;-75
2023/12/06 12:41:27;;;;;;;5.38;5.18;;;4.80;99.90;;;;;;4962363;28;20039;-74
2023/12/06 12:44:00;;;;;;;0.00;0.00;;;4.80;99.90;;;;;;4967386;29;20039;-74
2023/12/06 12:46:47;;;;;;;0.10;0.10;;;4.80;99.90;;;;;;4963358;29;20385;-74
2023/12/06 12:49:34;;;;;;;0.10;0.10;;;4.70;99.90;;;;;;4964772;29;20114;-75
2023/12/06 12:52:02;;;;;;;0.05;0.05;;;4.70;99.90;;;;;;4956676;29;20090;-74
2023/12/06 12:54:29;;;;;;;0.10;0.10;;;4.80;99.90;;;;;;4957846;29;20183;-74
2023/12/06 12:56:55;;;;;;;0.05;0.05;;;4.60;99.90;;;;;;4960441;28;20058;-74
2023/12/06 12:59:22;;;;;;;0.10;0.10;;;4.50;99.90;;;;;;4967630;29;20035;-77
2023/12/06 13:01:48;;;;;;;0.22;0.22;;;4.50;99.90;;;;;;4964576;29;20047;-73
2023/12/06 13:04:21;;;;;;;0.10;0.10;;;4.50;99.90;;;;;;4963394;29;20139;-73
2023/12/06 13:06:47;;;;;;;23.20;22.13;;;4.50;99.90;;;;;;4963890;29;20086;-74
2023/12/06 13:09:13;;;;;;;0.30;0.30;;;4.50;99.90;;;;;;4961927;29;20011;-74
2023/12/06 13:11:39;;;;;;;0.70;0.70;;;4.40;99.90;;;;;;4944745;29;20028;-80
2023/12/06 13:14:06;;;;;;;0.30;0.30;;;4.50;99.90;;;;;;4955422;28;20034;-74
2023/12/06 13:16:32;;;;;;;0.63;0.63;;;4.50;99.90;;;;;;4956434;29;20087;-75
2023/12/06 13:18:58;;;;;;;0.17;0.17;;;4.50;99.90;;;;;;4957132;29;20035;-76
2023/12/06 13:21:26;;;;;;;0.20;0.20;;;4.40;99.90;;;;;;4968694;28;20151;-74
2023/12/06 13:23:53;;;;;;;0.00;0.00;;;4.50;99.90;;;;;;4953131;29;20007;-74
2023/12/06 13:26:19;;;;;;;0.80;0.80;;;4.40;99.90;;;;;;4967790;28;20062;-75
2023/12/06 13:28:45;;;;;;;1.85;1.75;;;4.50;99.90;;;;;;4967334;28;20027;-74
2023/12/06 13:31:10;;;;;;;4.30;4.13;;;4.50;99.90;;;;;;4967600;29;20035;-74
2023/12/06 13:33:36;;;;;;;0.08;0.08;;;4.60;99.90;;;;;;4967498;29;20075;-74
2023/12/06 13:36:03;;;;;;;0.20;0.20;;;4.60;99.90;;;;;;5005222;23;20054;-74
2023/12/06 13:38:29;;;;;;;0.52;0.52;;;4.60;99.90;;;;;;5007504;28;20094;-74
2023/12/06 13:40:55;;;;;;;0.00;0.00;;;4.70;99.90;;;;;;5007025;28;20049;-74
2023/12/06 13:43:20;;;;;;;0.00;0.00;;;4.70;99.90;;;;;;5006381;28;20023;-74
2023/12/06 13:45:46;;;;;;;0.10;0.10;;;4.80;99.90;;;;;;5005228;28;20011;-74
2023/12/06 13:48:12;;;;;;;0.00;0.00;;;4.80;99.90;;;;;;4965194;28;20505;-74
2023/12/06 13:50:38;;;;;;;0.10;0.10;;;4.80;99.90;;;;;;4981584;28;20076;-74
2023/12/06 13:53:05;;;;;;;1.13;1.13;;;4.80;99.90;;;;;;4982205;28;20602;-75
2023/12/06 13:55:31;;;;;;;0.10;0.10;;;4.80;99.90;;;;;;4980524;28;20097;-74
2023/12/06 13:57:56;;;;;;;0.00;0.00;;;4.80;99.90;;;;;;4960792;28;20341;-74
2023/12/06 14:00:22;;;;;;;0.00;0.00;;;4.80;99.90;;;;;;4979006;28;20046;-74
2023/12/06 14:02:50;;;;;;;0.10;0.10;;;4.80;99.90;;;;;;4975213;28;20051;-74
2023/12/06 14:05:17;;;;;;;0.25;0.25;;;4.80;99.90;;;;;;4977165;28;20022;-74
2023/12/06 14:07:45;;;;;;;1.38;1.38;;;4.80;99.90;;;;;;4976773;28;20027;-74
2023/12/06 14:10:11;;;;;;;0.10;0.10;;;4.70;99.90;;;;;;4980438;28;20023;-74
2023/12/06 14:12:38;;;;;;;0.03;0.03;;;4.70;99.90;;;;;;4977142;28;20054;-75
2023/12/06 14:15:05;;;;;;;0.10;0.10;;;4.70;99.90;;;;;;4977308;28;20033;-74
2023/12/06 14:17:34;;;;;;;0.10;0.10;;;4.70;99.90;;;;;;4985231;28;20023;-74
2023/12/06 14:20:00;;;;;;;17.77;16.65;;;4.60;99.90;;;;;;4986467;28;20082;-76
2023/12/06 14:22:26;;;;;;;0.10;0.10;;;4.60;99.90;;;;;;4983179;28;20026;-73
2023/12/06 14:24:53;;;;;;;0.10;0.10;;;4.60;99.90;;;;;;4978295;28;20023;-75